sensor_id;sensor_type;location;lat;lon;timestamp;temperature;humidity
36352;DHT22;22382;44.768;17.206;2023-06-22T00:01:20;22.90;99.90
36352;DHT22;22382;44.768;17.206;2023-06-22T00:03:48;22.90;99.90
36352;DHT22;22382;44.768;17.206;2023-06-22T00:06:15;22.80;99.90
36352;DHT22;22382;44.768;17.206;2023-06-22T00:08:43;22.80;99.90
36352;DHT22;22382;44.768;17.206;2023-06-22T00:11:10;22.80;99.90
36352;DHT22;22382;44.768;17.206;2023-06-22T00:13:38;22.80;99.90
36352;DHT22;22382;44.768;17.206;2023-06-22T00:16:05;22.70;99.90
36352;DHT22;22382;44.768;17.206;2023-06-22T00:18:33;22.70;99.90
36352;DHT22;22382;44.768;17.206;2023-06-22T00:21:00;22.70;99.90
36352;DHT22;22382;44.768;17.206;2023-06-22T00:23:27;22.70;99.90
36352;DHT22;22382;44.768;17.206;2023-06-22T00:25:55;22.70;99.90
36352;DHT22;22382;44.768;17.206;2023-06-22T00:28:22;22.70;99.90
36352;DHT22;22382;44.768;17.206;2023-06-22T00:30:49;22.70;99.90
36352;DHT22;22382;44.768;17.206;2023-06-22T00:33:16;22.80;99.90
36352;DHT22;22382;44.768;17.206;2023-06-22T00:35:44;22.80;99.90
36352;DHT22;22382;44.768;17.206;2023-06-22T00:38:12;22.80;99.90
36352;DHT22;22382;44.768;17.206;2023-06-22T00:40:39;22.80;99.90
36352;DHT22;22382;44.768;17.206;2023-06-22T00:43:06;22.80;99.90
36352;DHT22;22382;44.768;17.206;2023-06-22T00:45:34;22.90;99.90
36352;DHT22;22382;44.768;17.206;2023-06-22T00:48:02;23.10;99.90
36352;DHT22;22382;44.768;17.206;2023-06-22T00:50:32;23.20;99.90
36352;DHT22;22382;44.768;17.206;2023-06-22T00:53:06;23.30;99.90
36352;DHT22;22382;44.768;17.206;2023-06-22T00:55:40;23.40;99.90
36352;DHT22;22382;44.768;17.206;2023-06-22T00:58:11;23.50;99.90
36352;DHT22;22382;44.768;17.206;2023-06-22T01:00:42;23.60;99.90
36352;DHT22;22382;44.768;17.206;2023-06-22T01:03:09;23.70;99.90
36352;DHT22;22382;44.768;17.206;2023-06-22T01:05:38;23.70;99.90
36352;DHT22;22382;44.768;17.206;2023-06-22T01:16:24;23.60;99.90
36352;DHT22;22382;44.768;17.206;2023-06-22T01:18:55;23.50;99.90
36352;DHT22;22382;44.768;17.206;2023-06-22T01:21:26;23.50;99.90
36352;DHT22;22382;44.768;17.206;2023-06-22T01:24:22;23.40;99.90
36352;DHT22;22382;44.768;17.206;2023-06-22T01:27:25;23.40;99.90
36352;DHT22;22382;44.768;17.206;2023-06-22T01:29:57;23.30;99.90
36352;DHT22;22382;44.768;17.206;2023-06-22T01:32:33;23.30;99.90
36352;DHT22;22382;44.768;17.206;2023-06-22T01:35:04;23.20;99.90
36352;DHT22;22382;44.768;17.206;2023-06-22T01:37:33;23.20;99.90
36352;DHT22;22382;44.768;17.206;2023-06-22T01:40:02;23.20;99.90
36352;DHT22;22382;44.768;17.206;2023-06-22T01:42:32;23.30;99.90
36352;DHT22;22382;44.768;17.206;2023-06-22T01:45:00;23.40;99.90
36352;DHT22;22382;44.768;17.206;2023-06-22T01:47:28;23.60;99.90
36352;DHT22;22382;44.768;17.206;2023-06-22T01:49:56;23.50;99.90
36352;DHT22;22382;44.768;17.206;2023-06-22T01:52:23;23.60;99.90
36352;DHT22;22382;44.768;17.206;2023-06-22T01:54:50;23.60;99.90
36352;DHT22;22382;44.768;17.206;2023-06-22T01:57:18;23.60;99.90
36352;DHT22;22382;44.768;17.206;2023-06-22T02:00:01;23.60;99.90
36352;DHT22;22382;44.768;17.206;2023-06-22T02:02:36;23.60;99.90
36352;DHT22;22382;44.768;17.206;2023-06-22T02:05:08;23.50;99.90
36352;DHT22;22382;44.768;17.206;2023-06-22T02:07:52;23.40;99.90
36352;DHT22;22382;44.768;17.206;2023-06-22T02:10:20;23.40;99.90
36352;DHT22;22382;44.768;17.206;2023-06-22T02:12:50;23.30;99.90
36352;DHT22;22382;44.768;17.206;2023-06-22T02:15:18;23.20;99.90
36352;DHT22;22382;44.768;17.206;2023-06-22T02:17:47;23.10;99.90
36352;DHT22;22382;44.768;17.206;2023-06-22T02:20:15;23.10;99.90
36352;DHT22;22382;44.768;17.206;2023-06-22T02:22:42;23.10;99.90
36352;DHT22;22382;44.768;17.206;2023-06-22T02:25:10;23.10;99.90
36352;DHT22;22382;44.768;17.206;2023-06-22T02:27:37;23.00;99.90
36352;DHT22;22382;44.768;17.206;2023-06-22T02:30:08;23.00;99.90
36352;DHT22;22382;44.768;17.206;2023-06-22T02:32:36;23.00;99.90
36352;DHT22;22382;44.768;17.206;2023-06-22T02:35:03;23.00;99.90
36352;DHT22;22382;44.768;17.206;2023-06-22T02:37:32;22.90;99.90
36352;DHT22;22382;44.768;17.206;2023-06-22T02:39:59;22.90;99.90
36352;DHT22;22382;44.768;17.206;2023-06-22T02:42:26;22.90;99.90
36352;DHT22;22382;44.768;17.206;2023-06-22T02:44:53;23.00;99.90
36352;DHT22;22382;44.768;17.206;2023-06-22T02:47:20;22.90;99.90
36352;DHT22;22382;44.768;17.206;2023-06-22T02:49:48;22.90;99.90
36352;DHT22;22382;44.768;17.206;2023-06-22T02:52:15;22.90;99.90
36352;DHT22;22382;44.768;17.206;2023-06-22T02:54:42;22.80;99.90
36352;DHT22;22382;44.768;17.206;2023-06-22T02:57:12;22.80;99.90
36352;DHT22;22382;44.768;17.206;2023-06-22T02:59:40;22.80;99.90
36352;DHT22;22382;44.768;17.206;2023-06-22T03:02:09;22.80;99.90
36352;DHT22;22382;44.768;17.206;2023-06-22T03:04:36;22.70;99.90
36352;DHT22;22382;44.768;17.206;2023-06-22T03:07:04;22.70;99.90
36352;DHT22;22382;44.768;17.206;2023-06-22T03:09:33;22.70;99.90
36352;DHT22;22382;44.768;17.206;2023-06-22T03:12:00;22.70;99.90
36352;DHT22;22382;44.768;17.206;2023-06-22T03:14:29;22.70;99.90
36352;DHT22;22382;44.768;17.206;2023-06-22T03:16:56;22.60;99.90
36352;DHT22;22382;44.768;17.206;2023-06-22T03:19:29;22.60;99.90
36352;DHT22;22382;44.768;17.206;2023-06-22T03:21:59;22.60;99.90
36352;DHT22;22382;44.768;17.206;2023-06-22T03:24:27;22.60;99.90
36352;DHT22;22382;44.768;17.206;2023-06-22T03:26:56;22.60;99.90
36352;DHT22;22382;44.768;17.206;2023-06-22T03:29:23;22.50;99.90
36352;DHT22;22382;44.768;17.206;2023-06-22T03:31:55;22.60;99.90
36352;DHT22;22382;44.768;17.206;2023-06-22T03:34:22;22.60;99.90
36352;DHT22;22382;44.768;17.206;2023-06-22T03:36:49;22.70;99.90
36352;DHT22;22382;44.768;17.206;2023-06-22T03:39:17;22.70;99.90
36352;DHT22;22382;44.768;17.206;2023-06-22T03:41:44;22.70;99.90
36352;DHT22;22382;44.768;17.206;2023-06-22T03:44:11;22.80;99.90
36352;DHT22;22382;44.768;17.206;2023-06-22T03:46:39;22.90;99.90
36352;DHT22;22382;44.768;17.206;2023-06-22T03:49:06;22.90;99.90
36352;DHT22;22382;44.768;17.206;2023-06-22T03:51:34;23.00;99.90
36352;DHT22;22382;44.768;17.206;2023-06-22T03:54:01;23.10;99.90
36352;DHT22;22382;44.768;17.206;2023-06-22T03:56:28;23.20;99.90
36352;DHT22;22382;44.768;17.206;2023-06-22T03:58:55;23.30;99.90
36352;DHT22;22382;44.768;17.206;2023-06-22T04:01:23;23.40;99.90
36352;DHT22;22382;44.768;17.206;2023-06-22T04:03:50;23.50;99.90
36352;DHT22;22382;44.768;17.206;2023-06-22T04:06:17;23.50;99.90
36352;DHT22;22382;44.768;17.206;2023-06-22T04:08:45;23.60;99.90
36352;DHT22;22382;44.768;17.206;2023-06-22T04:11:18;23.70;99.90
36352;DHT22;22382;44.768;17.206;2023-06-22T04:13:45;23.80;99.90
36352;DHT22;22382;44.768;17.206;2023-06-22T04:16:13;24.00;99.90
36352;DHT22;22382;44.768;17.206;2023-06-22T04:18:40;24.00;99.90
36352;DHT22;22382;44.768;17.206;2023-06-22T04:21:09;24.10;99.90
36352;DHT22;22382;44.768;17.206;2023-06-22T04:23:36;24.20;99.90
36352;DHT22;22382;44.768;17.206;2023-06-22T04:26:04;24.40;99.90
36352;DHT22;22382;44.768;17.206;2023-06-22T04:28:31;24.50;99.90
36352;DHT22;22382;44.768;17.206;2023-06-22T04:31:02;24.80;99.90
36352;DHT22;22382;44.768;17.206;2023-06-22T04:33:30;25.00;99.90
36352;DHT22;22382;44.768;17.206;2023-06-22T04:35:58;25.30;99.90
36352;DHT22;22382;44.768;17.206;2023-06-22T04:38:25;25.50;99.90
36352;DHT22;22382;44.768;17.206;2023-06-22T04:40:52;25.60;99.90
36352;DHT22;22382;44.768;17.206;2023-06-22T04:43:20;25.90;99.90
36352;DHT22;22382;44.768;17.206;2023-06-22T04:45:47;26.10;99.90
36352;DHT22;22382;44.768;17.206;2023-06-22T04:48:19;26.30;99.90
36352;DHT22;22382;44.768;17.206;2023-06-22T04:50:46;26.50;99.90
36352;DHT22;22382;44.768;17.206;2023-06-22T04:53:14;26.80;99.90
36352;DHT22;22382;44.768;17.206;2023-06-22T04:55:41;27.00;99.90
36352;DHT22;22382;44.768;17.206;2023-06-22T04:58:12;27.10;99.90
36352;DHT22;22382;44.768;17.206;2023-06-22T05:00:39;27.30;99.90
36352;DHT22;22382;44.768;17.206;2023-06-22T05:03:07;27.50;99.90
36352;DHT22;22382;44.768;17.206;2023-06-22T05:05:46;27.70;99.90
36352;DHT22;22382;44.768;17.206;2023-06-22T05:08:13;27.80;99.90
36352;DHT22;22382;44.768;17.206;2023-06-22T05:10:41;27.90;99.90
36352;DHT22;22382;44.768;17.206;2023-06-22T05:13:28;28.00;99.90
36352;DHT22;22382;44.768;17.206;2023-06-22T05:15:55;28.10;99.90
36352;DHT22;22382;44.768;17.206;2023-06-22T05:18:29;28.10;99.60
36352;DHT22;22382;44.768;17.206;2023-06-22T05:20:58;28.10;99.70
36352;DHT22;22382;44.768;17.206;2023-06-22T05:23:25;28.10;99.30
36352;DHT22;22382;44.768;17.206;2023-06-22T05:25:52;27.90;99.60
36352;DHT22;22382;44.768;17.206;2023-06-22T05:28:21;27.90;99.30
36352;DHT22;22382;44.768;17.206;2023-06-22T05:30:50;27.90;98.90
36352;DHT22;22382;44.768;17.206;2023-06-22T05:33:17;27.90;98.60
36352;DHT22;22382;44.768;17.206;2023-06-22T05:35:45;27.90;98.20
36352;DHT22;22382;44.768;17.206;2023-06-22T05:38:12;27.90;98.40
36352;DHT22;22382;44.768;17.206;2023-06-22T05:40:39;27.90;98.70
36352;DHT22;22382;44.768;17.206;2023-06-22T05:43:06;27.90;98.40
36352;DHT22;22382;44.768;17.206;2023-06-22T05:45:33;28.00;98.10
36352;DHT22;22382;44.768;17.206;2023-06-22T05:48:01;28.10;98.20
36352;DHT22;22382;44.768;17.206;2023-06-22T05:50:28;28.30;97.70
36352;DHT22;22382;44.768;17.206;2023-06-22T05:52:56;28.50;96.90
36352;DHT22;22382;44.768;17.206;2023-06-22T05:55:23;28.60;95.60
36352;DHT22;22382;44.768;17.206;2023-06-22T05:57:50;28.60;95.20
36352;DHT22;22382;44.768;17.206;2023-06-22T06:00:18;28.60;95.10
36352;DHT22;22382;44.768;17.206;2023-06-22T06:02:45;28.60;95.00
36352;DHT22;22382;44.768;17.206;2023-06-22T06:05:13;28.60;95.60
36352;DHT22;22382;44.768;17.206;2023-06-22T06:07:42;28.60;95.30
36352;DHT22;22382;44.768;17.206;2023-06-22T06:10:09;28.70;94.40
36352;DHT22;22382;44.768;17.206;2023-06-22T06:12:37;28.70;94.10
36352;DHT22;22382;44.768;17.206;2023-06-22T06:15:05;28.80;94.10
36352;DHT22;22382;44.768;17.206;2023-06-22T06:17:35;28.70;94.60
36352;DHT22;22382;44.768;17.206;2023-06-22T06:20:11;28.80;94.10
36352;DHT22;22382;44.768;17.206;2023-06-22T06:22:39;29.00;93.70
36352;DHT22;22382;44.768;17.206;2023-06-22T06:25:06;29.20;93.00
36352;DHT22;22382;44.768;17.206;2023-06-22T06:27:34;29.50;92.20
36352;DHT22;22382;44.768;17.206;2023-06-22T06:30:01;29.80;91.60
36352;DHT22;22382;44.768;17.206;2023-06-22T06:32:29;29.90;90.80
36352;DHT22;22382;44.768;17.206;2023-06-22T06:34:56;29.80;90.90
36352;DHT22;22382;44.768;17.206;2023-06-22T06:37:23;30.00;90.90
36352;DHT22;22382;44.768;17.206;2023-06-22T06:39:50;30.10;89.90
36352;DHT22;22382;44.768;17.206;2023-06-22T06:42:18;30.30;89.80
36352;DHT22;22382;44.768;17.206;2023-06-22T06:44:46;30.40;88.60
36352;DHT22;22382;44.768;17.206;2023-06-22T06:47:13;30.60;88.10
36352;DHT22;22382;44.768;17.206;2023-06-22T06:49:40;30.60;86.90
36352;DHT22;22382;44.768;17.206;2023-06-22T06:52:08;30.60;86.60
36352;DHT22;22382;44.768;17.206;2023-06-22T06:54:35;30.60;86.00
36352;DHT22;22382;44.768;17.206;2023-06-22T06:57:03;30.70;85.00
36352;DHT22;22382;44.768;17.206;2023-06-22T06:59:30;30.80;83.70
36352;DHT22;22382;44.768;17.206;2023-06-22T07:01:58;30.80;82.10
36352;DHT22;22382;44.768;17.206;2023-06-22T07:04:25;30.90;81.70
36352;DHT22;22382;44.768;17.206;2023-06-22T07:06:52;30.90;82.40
36352;DHT22;22382;44.768;17.206;2023-06-22T07:09:20;31.00;81.60
36352;DHT22;22382;44.768;17.206;2023-06-22T07:11:47;31.00;80.90
36352;DHT22;22382;44.768;17.206;2023-06-22T07:14:14;31.00;80.80
36352;DHT22;22382;44.768;17.206;2023-06-22T07:16:41;31.10;80.10
36352;DHT22;22382;44.768;17.206;2023-06-22T07:19:11;31.10;80.20
36352;DHT22;22382;44.768;17.206;2023-06-22T07:21:39;31.10;79.80
36352;DHT22;22382;44.768;17.206;2023-06-22T07:24:09;31.30;79.60
36352;DHT22;22382;44.768;17.206;2023-06-22T07:26:37;31.30;79.90
36352;DHT22;22382;44.768;17.206;2023-06-22T07:29:04;31.30;79.50
36352;DHT22;22382;44.768;17.206;2023-06-22T07:31:31;31.30;79.90
36352;DHT22;22382;44.768;17.206;2023-06-22T07:33:58;31.60;79.70
36352;DHT22;22382;44.768;17.206;2023-06-22T07:36:26;31.60;79.20
36352;DHT22;22382;44.768;17.206;2023-06-22T07:38:53;31.30;79.60
36352;DHT22;22382;44.768;17.206;2023-06-22T07:41:20;31.20;78.00
36352;DHT22;22382;44.768;17.206;2023-06-22T07:43:48;31.40;78.60
36352;DHT22;22382;44.768;17.206;2023-06-22T07:46:15;31.60;79.70
36352;DHT22;22382;44.768;17.206;2023-06-22T07:48:43;31.60;79.30
36352;DHT22;22382;44.768;17.206;2023-06-22T07:51:11;31.50;78.60
36352;DHT22;22382;44.768;17.206;2023-06-22T07:53:42;31.60;78.80
36352;DHT22;22382;44.768;17.206;2023-06-22T07:56:13;31.60;78.80
36352;DHT22;22382;44.768;17.206;2023-06-22T07:58:40;31.70;78.20
36352;DHT22;22382;44.768;17.206;2023-06-22T08:01:07;31.60;78.30
36352;DHT22;22382;44.768;17.206;2023-06-22T08:03:36;31.60;78.40
36352;DHT22;22382;44.768;17.206;2023-06-22T08:06:03;31.60;78.50
36352;DHT22;22382;44.768;17.206;2023-06-22T08:08:31;31.60;78.40
36352;DHT22;22382;44.768;17.206;2023-06-22T08:10:58;31.70;77.90
36352;DHT22;22382;44.768;17.206;2023-06-22T08:13:26;32.00;77.60
36352;DHT22;22382;44.768;17.206;2023-06-22T08:15:53;32.10;77.80
36352;DHT22;22382;44.768;17.206;2023-06-22T08:18:20;32.20;79.10
36352;DHT22;22382;44.768;17.206;2023-06-22T08:20:48;32.30;76.80
36352;DHT22;22382;44.768;17.206;2023-06-22T08:23:16;32.10;76.90
36352;DHT22;22382;44.768;17.206;2023-06-22T08:25:44;32.10;75.40
36352;DHT22;22382;44.768;17.206;2023-06-22T08:28:11;32.30;72.40
36352;DHT22;22382;44.768;17.206;2023-06-22T08:30:39;32.50;74.10
36352;DHT22;22382;44.768;17.206;2023-06-22T08:33:07;32.40;73.40
36352;DHT22;22382;44.768;17.206;2023-06-22T08:35:35;32.10;74.40
36352;DHT22;22382;44.768;17.206;2023-06-22T08:38:02;32.20;73.80
36352;DHT22;22382;44.768;17.206;2023-06-22T08:40:29;32.30;71.80
36352;DHT22;22382;44.768;17.206;2023-06-22T08:42:57;32.50;71.50
36352;DHT22;22382;44.768;17.206;2023-06-22T08:45:24;32.60;72.30
36352;DHT22;22382;44.768;17.206;2023-06-22T08:47:54;32.50;72.80
36352;DHT22;22382;44.768;17.206;2023-06-22T08:50:21;32.40;71.70
36352;DHT22;22382;44.768;17.206;2023-06-22T08:52:48;32.30;73.10
36352;DHT22;22382;44.768;17.206;2023-06-22T08:55:16;32.30;72.20
36352;DHT22;22382;44.768;17.206;2023-06-22T08:57:43;32.30;72.10
36352;DHT22;22382;44.768;17.206;2023-06-22T09:00:11;32.60;71.60
36352;DHT22;22382;44.768;17.206;2023-06-22T09:02:44;32.60;71.10
36352;DHT22;22382;44.768;17.206;2023-06-22T09:05:12;32.60;71.50
36352;DHT22;22382;44.768;17.206;2023-06-22T09:07:40;32.50;68.80
36352;DHT22;22382;44.768;17.206;2023-06-22T09:10:08;32.60;69.00
36352;DHT22;22382;44.768;17.206;2023-06-22T09:12:35;32.90;69.70
36352;DHT22;22382;44.768;17.206;2023-06-22T09:15:05;32.90;68.90
36352;DHT22;22382;44.768;17.206;2023-06-22T09:17:38;32.90;67.10
36352;DHT22;22382;44.768;17.206;2023-06-22T09:20:06;32.80;67.00
36352;DHT22;22382;44.768;17.206;2023-06-22T09:22:34;33.10;67.70
36352;DHT22;22382;44.768;17.206;2023-06-22T09:25:01;33.30;67.30
36352;DHT22;22382;44.768;17.206;2023-06-22T09:27:33;33.20;66.20
36352;DHT22;22382;44.768;17.206;2023-06-22T09:30:00;33.40;66.20
36352;DHT22;22382;44.768;17.206;2023-06-22T09:32:27;33.50;66.10
36352;DHT22;22382;44.768;17.206;2023-06-22T09:34:55;33.40;66.30
36352;DHT22;22382;44.768;17.206;2023-06-22T09:37:22;33.20;66.60
36352;DHT22;22382;44.768;17.206;2023-06-22T09:39:49;32.90;66.60
36352;DHT22;22382;44.768;17.206;2023-06-22T09:42:17;32.80;66.20
36352;DHT22;22382;44.768;17.206;2023-06-22T09:44:44;33.10;64.30
36352;DHT22;22382;44.768;17.206;2023-06-22T09:47:11;32.80;66.20
36352;DHT22;22382;44.768;17.206;2023-06-22T09:49:39;32.60;67.20
36352;DHT22;22382;44.768;17.206;2023-06-22T09:52:14;32.60;68.10
36352;DHT22;22382;44.768;17.206;2023-06-22T09:54:41;32.60;67.60
36352;DHT22;22382;44.768;17.206;2023-06-22T09:57:08;32.70;68.30
36352;DHT22;22382;44.768;17.206;2023-06-22T09:59:36;32.90;69.60
36352;DHT22;22382;44.768;17.206;2023-06-22T10:02:03;33.00;68.60
36352;DHT22;22382;44.768;17.206;2023-06-22T10:04:30;33.10;67.90
36352;DHT22;22382;44.768;17.206;2023-06-22T10:06:58;33.40;67.60
36352;DHT22;22382;44.768;17.206;2023-06-22T10:09:25;33.60;67.70
36352;DHT22;22382;44.768;17.206;2023-06-22T10:11:52;33.40;66.80
36352;DHT22;22382;44.768;17.206;2023-06-22T10:14:20;33.30;67.60
36352;DHT22;22382;44.768;17.206;2023-06-22T10:16:48;33.10;68.70
36352;DHT22;22382;44.768;17.206;2023-06-22T10:19:15;33.30;66.90
36352;DHT22;22382;44.768;17.206;2023-06-22T10:21:43;33.30;67.30
36352;DHT22;22382;44.768;17.206;2023-06-22T10:24:10;33.20;67.30
36352;DHT22;22382;44.768;17.206;2023-06-22T10:26:37;33.20;67.00
36352;DHT22;22382;44.768;17.206;2023-06-22T10:29:04;33.10;67.10
36352;DHT22;22382;44.768;17.206;2023-06-22T10:31:34;33.10;67.70
36352;DHT22;22382;44.768;17.206;2023-06-22T10:34:02;33.10;67.80
36352;DHT22;22382;44.768;17.206;2023-06-22T10:36:29;33.00;67.50
36352;DHT22;22382;44.768;17.206;2023-06-22T10:38:56;33.00;67.20
36352;DHT22;22382;44.768;17.206;2023-06-22T10:41:27;33.00;67.40
36352;DHT22;22382;44.768;17.206;2023-06-22T10:43:57;33.00;68.40
36352;DHT22;22382;44.768;17.206;2023-06-22T10:46:25;32.90;66.90
36352;DHT22;22382;44.768;17.206;2023-06-22T10:48:53;33.00;68.10
36352;DHT22;22382;44.768;17.206;2023-06-22T10:51:22;33.10;66.90
36352;DHT22;22382;44.768;17.206;2023-06-22T10:53:49;33.30;67.40
36352;DHT22;22382;44.768;17.206;2023-06-22T10:56:18;33.30;67.60
36352;DHT22;22382;44.768;17.206;2023-06-22T10:58:46;33.20;67.90
36352;DHT22;22382;44.768;17.206;2023-06-22T11:01:13;33.10;68.60
36352;DHT22;22382;44.768;17.206;2023-06-22T11:04:01;33.10;68.20
36352;DHT22;22382;44.768;17.206;2023-06-22T11:06:28;33.10;66.20
36352;DHT22;22382;44.768;17.206;2023-06-22T11:08:55;33.20;66.50
36352;DHT22;22382;44.768;17.206;2023-06-22T11:11:37;33.30;66.10
36352;DHT22;22382;44.768;17.206;2023-06-22T11:14:05;33.30;67.90
36352;DHT22;22382;44.768;17.206;2023-06-22T11:16:32;33.30;66.40
36352;DHT22;22382;44.768;17.206;2023-06-22T11:19:01;33.60;65.60
36352;DHT22;22382;44.768;17.206;2023-06-22T11:21:30;33.60;65.40
36352;DHT22;22382;44.768;17.206;2023-06-22T11:24:01;33.40;66.10
36352;DHT22;22382;44.768;17.206;2023-06-22T11:26:28;33.40;65.30
36352;DHT22;22382;44.768;17.206;2023-06-22T11:28:56;33.50;66.00
36352;DHT22;22382;44.768;17.206;2023-06-22T11:31:23;33.60;67.50
36352;DHT22;22382;44.768;17.206;2023-06-22T11:33:52;33.70;67.30
36352;DHT22;22382;44.768;17.206;2023-06-22T11:36:20;33.90;67.50
36352;DHT22;22382;44.768;17.206;2023-06-22T11:38:47;34.10;67.20
36352;DHT22;22382;44.768;17.206;2023-06-22T11:41:14;34.10;68.50
36352;DHT22;22382;44.768;17.206;2023-06-22T11:43:42;34.00;67.70
36352;DHT22;22382;44.768;17.206;2023-06-22T11:46:09;34.20;66.30
36352;DHT22;22382;44.768;17.206;2023-06-22T11:48:37;34.00;66.70
36352;DHT22;22382;44.768;17.206;2023-06-22T11:51:04;33.80;68.60
36352;DHT22;22382;44.768;17.206;2023-06-22T11:53:33;33.80;67.80
36352;DHT22;22382;44.768;17.206;2023-06-22T11:56:01;33.80;68.50
36352;DHT22;22382;44.768;17.206;2023-06-22T11:58:28;34.10;68.60
36352;DHT22;22382;44.768;17.206;2023-06-22T12:00:56;34.30;68.00
36352;DHT22;22382;44.768;17.206;2023-06-22T12:03:23;33.90;68.20
36352;DHT22;22382;44.768;17.206;2023-06-22T12:05:51;33.70;69.30
36352;DHT22;22382;44.768;17.206;2023-06-22T12:08:21;33.90;69.50
36352;DHT22;22382;44.768;17.206;2023-06-22T12:10:50;33.80;68.90
36352;DHT22;22382;44.768;17.206;2023-06-22T12:13:17;33.90;68.70
36352;DHT22;22382;44.768;17.206;2023-06-22T12:15:44;34.00;68.40
36352;DHT22;22382;44.768;17.206;2023-06-22T12:18:12;34.00;68.50
36352;DHT22;22382;44.768;17.206;2023-06-22T12:20:41;34.40;67.60
36352;DHT22;22382;44.768;17.206;2023-06-22T12:23:08;34.60;65.70
36352;DHT22;22382;44.768;17.206;2023-06-22T12:25:35;34.90;66.30
36352;DHT22;22382;44.768;17.206;2023-06-22T12:28:03;34.90;66.00
36352;DHT22;22382;44.768;17.206;2023-06-22T12:30:33;35.00;65.60
36352;DHT22;22382;44.768;17.206;2023-06-22T12:33:00;35.00;66.10
36352;DHT22;22382;44.768;17.206;2023-06-22T12:35:27;34.80;65.90
36352;DHT22;22382;44.768;17.206;2023-06-22T12:37:54;34.90;65.40
36352;DHT22;22382;44.768;17.206;2023-06-22T12:40:22;35.00;65.00
36352;DHT22;22382;44.768;17.206;2023-06-22T12:42:49;35.10;65.90
36352;DHT22;22382;44.768;17.206;2023-06-22T12:45:17;34.80;64.40
36352;DHT22;22382;44.768;17.206;2023-06-22T12:47:44;34.70;65.40
36352;DHT22;22382;44.768;17.206;2023-06-22T12:50:12;34.90;66.00
36352;DHT22;22382;44.768;17.206;2023-06-22T12:52:39;35.10;66.20
36352;DHT22;22382;44.768;17.206;2023-06-22T12:55:08;35.20;66.40
36352;DHT22;22382;44.768;17.206;2023-06-22T12:57:35;35.30;66.40
36352;DHT22;22382;44.768;17.206;2023-06-22T13:00:03;35.50;67.90
36352;DHT22;22382;44.768;17.206;2023-06-22T13:02:32;35.70;67.60
36352;DHT22;22382;44.768;17.206;2023-06-22T13:04:59;35.40;65.40
36352;DHT22;22382;44.768;17.206;2023-06-22T13:07:26;35.50;67.20
36352;DHT22;22382;44.768;17.206;2023-06-22T13:09:54;35.80;68.40
36352;DHT22;22382;44.768;17.206;2023-06-22T13:12:21;35.80;65.40
36352;DHT22;22382;44.768;17.206;2023-06-22T13:14:48;35.60;64.90
36352;DHT22;22382;44.768;17.206;2023-06-22T13:17:16;35.40;65.00
36352;DHT22;22382;44.768;17.206;2023-06-22T13:19:43;35.40;65.50
36352;DHT22;22382;44.768;17.206;2023-06-22T13:22:35;35.30;65.30
36352;DHT22;22382;44.768;17.206;2023-06-22T13:25:10;35.20;65.30
36352;DHT22;22382;44.768;17.206;2023-06-22T13:27:42;35.20;65.30
36352;DHT22;22382;44.768;17.206;2023-06-22T13:30:10;35.20;65.90
36352;DHT22;22382;44.768;17.206;2023-06-22T13:32:41;35.20;66.90
36352;DHT22;22382;44.768;17.206;2023-06-22T13:35:10;34.90;67.90
36352;DHT22;22382;44.768;17.206;2023-06-22T13:37:38;34.80;68.00
36352;DHT22;22382;44.768;17.206;2023-06-22T13:40:06;35.00;67.10
36352;DHT22;22382;44.768;17.206;2023-06-22T13:42:35;34.80;67.80
36352;DHT22;22382;44.768;17.206;2023-06-22T13:45:03;34.90;68.10
36352;DHT22;22382;44.768;17.206;2023-06-22T13:47:31;34.90;67.50
36352;DHT22;22382;44.768;17.206;2023-06-22T13:49:58;34.80;67.70
36352;DHT22;22382;44.768;17.206;2023-06-22T13:52:26;34.90;67.30
36352;DHT22;22382;44.768;17.206;2023-06-22T13:54:53;35.10;67.00
36352;DHT22;22382;44.768;17.206;2023-06-22T13:57:20;35.00;66.90
36352;DHT22;22382;44.768;17.206;2023-06-22T13:59:48;35.00;68.60
36352;DHT22;22382;44.768;17.206;2023-06-22T14:02:15;34.90;68.40
36352;DHT22;22382;44.768;17.206;2023-06-22T14:04:43;35.20;67.90
36352;DHT22;22382;44.768;17.206;2023-06-22T14:07:10;35.20;67.10
36352;DHT22;22382;44.768;17.206;2023-06-22T14:09:39;35.20;67.90
36352;DHT22;22382;44.768;17.206;2023-06-22T14:12:07;35.00;67.60
36352;DHT22;22382;44.768;17.206;2023-06-22T14:14:34;35.30;68.00
36352;DHT22;22382;44.768;17.206;2023-06-22T14:17:01;35.40;67.10
36352;DHT22;22382;44.768;17.206;2023-06-22T14:19:29;35.50;67.50
36352;DHT22;22382;44.768;17.206;2023-06-22T14:21:57;35.50;68.00
36352;DHT22;22382;44.768;17.206;2023-06-22T14:24:25;35.50;67.50
36352;DHT22;22382;44.768;17.206;2023-06-22T14:26:55;35.50;66.60
36352;DHT22;22382;44.768;17.206;2023-06-22T14:29:23;35.50;66.90
36352;DHT22;22382;44.768;17.206;2023-06-22T14:31:50;35.50;66.60
36352;DHT22;22382;44.768;17.206;2023-06-22T14:34:17;35.70;65.80
36352;DHT22;22382;44.768;17.206;2023-06-22T14:36:44;35.70;66.00
36352;DHT22;22382;44.768;17.206;2023-06-22T14:39:11;35.60;66.40
36352;DHT22;22382;44.768;17.206;2023-06-22T14:41:39;35.60;66.30
36352;DHT22;22382;44.768;17.206;2023-06-22T14:44:06;35.40;66.50
36352;DHT22;22382;44.768;17.206;2023-06-22T14:46:33;35.60;66.20
36352;DHT22;22382;44.768;17.206;2023-06-22T14:49:02;35.50;66.10
36352;DHT22;22382;44.768;17.206;2023-06-22T14:51:29;36.30;65.30
36352;DHT22;22382;44.768;17.206;2023-06-22T14:53:56;37.40;63.10
36352;DHT22;22382;44.768;17.206;2023-06-22T14:56:23;38.10;61.30
36352;DHT22;22382;44.768;17.206;2023-06-22T14:58:51;38.50;60.40
36352;DHT22;22382;44.768;17.206;2023-06-22T15:01:18;38.70;59.60
36352;DHT22;22382;44.768;17.206;2023-06-22T15:03:45;39.40;58.20
36352;DHT22;22382;44.768;17.206;2023-06-22T15:06:13;39.80;58.20
36352;DHT22;22382;44.768;17.206;2023-06-22T15:08:41;40.40;57.60
36352;DHT22;22382;44.768;17.206;2023-06-22T15:11:08;40.20;56.60
36352;DHT22;22382;44.768;17.206;2023-06-22T15:13:39;40.40;55.90
36352;DHT22;22382;44.768;17.206;2023-06-22T15:16:07;40.70;55.50
36352;DHT22;22382;44.768;17.206;2023-06-22T15:18:35;40.90;54.60
36352;DHT22;22382;44.768;17.206;2023-06-22T15:21:03;40.90;54.60
36352;DHT22;22382;44.768;17.206;2023-06-22T15:23:31;40.70;54.90
36352;DHT22;22382;44.768;17.206;2023-06-22T15:26:01;40.60;54.70
36352;DHT22;22382;44.768;17.206;2023-06-22T15:28:29;40.20;55.20
36352;DHT22;22382;44.768;17.206;2023-06-22T15:30:56;40.00;54.90